createdAt,value
2019-04-01T00:00:01.312Z,1.3
2019-04-01T00:10:01.432Z,1.5
2019-04-01T00:15:01.436Z,1.4
2019-04-01T00:20:01.294Z,1.5
2019-04-01T00:25:01.446Z,1.6
2019-04-01T00:30:01.300Z,1.7
2019-04-01T00:40:01.434Z,1.7
2019-04-01T00:45:01.363Z,1.6
2019-04-01T00:50:02.512Z,1.5
2019-04-01T01:00:01.380Z,1.5
2019-04-01T01:05:01.433Z,1.5
2019-04-01T01:15:01.365Z,1.4
2019-04-01T01:30:01.489Z,1.2
2019-04-01T01:35:01.510Z,1.3
2019-04-01T01:40:01.480Z,1.2
2019-04-01T01:45:01.700Z,1.5
2019-04-01T01:50:01.407Z,1.8
2019-04-01T01:55:01.385Z,1.6
2019-04-01T02:00:02.320Z,1.9
2019-04-01T02:05:01.457Z,1.9
2019-04-01T02:15:01.331Z,1.5
2019-04-01T02:20:01.299Z,1.6
2019-04-01T02:30:01.343Z,1.8
2019-04-01T02:35:02.310Z,1.5
2019-04-01T02:40:01.304Z,1.7
2019-04-01T02:45:01.380Z,2.1
2019-04-01T02:55:07.316Z,2.0
2019-04-01T03:00:01.312Z,2.0
2019-04-01T03:05:01.353Z,1.8
2019-04-01T03:10:01.334Z,1.6
2019-04-01T03:15:01.403Z,1.7
2019-04-01T03:20:01.384Z,1.5
2019-04-01T03:25:01.414Z,1.6
2019-04-01T03:30:01.416Z,1.6
2019-04-01T03:35:02.394Z,1.8
2019-04-01T03:45:01.532Z,1.8
2019-04-01T03:50:01.368Z,1.8
2019-04-01T04:00:01.397Z,1.8
2019-04-01T04:05:01.374Z,2.0
2019-04-01T04:15:01.452Z,2.0
2019-04-01T04:20:01.323Z,2.2
2019-04-01T04:25:06.422Z,2.2
2019-04-01T04:30:01.291Z,2.0
2019-04-01T04:35:01.626Z,2.2
2019-04-01T04:40:01.316Z,2.4
2019-04-01T04:45:01.373Z,2.1
2019-04-01T04:50:01.290Z,2.2
2019-04-01T04:55:01.350Z,2.2
2019-04-01T05:00:01.321Z,2.0
2019-04-01T05:10:01.920Z,2.1
2019-04-01T05:15:01.366Z,2.3
2019-04-01T05:20:01.297Z,2.5
2019-04-01T05:30:01.801Z,3.0
2019-04-01T05:35:01.413Z,2.9
2019-04-01T05:40:01.286Z,2.7
2019-04-01T05:45:01.303Z,2.5
2019-04-01T05:50:01.285Z,2.4
2019-04-01T05:55:02.364Z,2.1
2019-04-01T06:00:01.365Z,1.9
2019-04-01T06:05:02.325Z,1.8
2019-04-01T06:10:01.294Z,2.0
2019-04-01T06:15:01.367Z,2.2
2019-04-01T06:20:01.315Z,2.3
2019-04-01T06:25:01.357Z,2.5
2019-04-01T06:30:01.378Z,2.5
2019-04-01T06:35:01.323Z,2.3
2019-04-01T06:40:01.303Z,2.3
2019-04-01T06:45:01.419Z,2.5
2019-04-01T06:50:01.292Z,2.5
2019-04-01T06:55:01.344Z,2.2
2019-04-01T07:00:01.305Z,2.3
2019-04-01T07:10:01.399Z,2.0
2019-04-01T07:15:01.307Z,2.2
2019-04-01T07:30:01.310Z,2.3
2019-04-01T07:35:01.366Z,2.5
2019-04-01T07:45:01.352Z,2.7
2019-04-01T07:50:01.345Z,2.4
2019-04-01T07:55:01.402Z,2.7
2019-04-01T08:00:01.331Z,2.7
2019-04-01T08:05:01.392Z,3.3
2019-04-01T08:10:01.341Z,3.3
2019-04-01T08:15:01.436Z,3.6
2019-04-01T08:20:01.338Z,3.6
2019-04-01T08:25:01.347Z,3.9
2019-04-01T08:30:06.323Z,3.9
2019-04-01T08:35:01.635Z,3.9
2019-04-01T08:40:01.543Z,3.5
2019-04-01T08:45:01.374Z,3.9
2019-04-01T08:50:01.323Z,3.8
2019-04-01T08:55:01.399Z,3.5
2019-04-01T09:00:01.321Z,3.6
2019-04-01T09:05:01.384Z,4.5
2019-04-01T09:10:01.343Z,4.8
2019-04-01T09:15:01.355Z,5.1
2019-04-01T09:20:01.344Z,4.8
2019-04-01T09:25:01.463Z,4.7
2019-04-01T09:30:01.308Z,3.9
2019-04-01T09:35:01.431Z,3.5
2019-04-01T09:40:01.331Z,3.2
2019-04-01T09:45:01.367Z,3.6
2019-04-01T09:50:01.491Z,3.6
2019-04-01T09:55:01.457Z,3.4
2019-04-01T10:00:01.305Z,3.5
2019-04-01T10:10:01.478Z,3.4
2019-04-01T10:15:01.303Z,3.6
2019-04-01T10:21:01.417Z,3.7
2019-04-01T10:26:01.363Z,3.8
2019-04-01T10:31:01.352Z,3.8
2019-04-01T10:36:01.466Z,4.2
2019-04-01T10:41:01.333Z,4.0
2019-04-01T10:46:01.302Z,4.1
2019-04-01T10:51:01.452Z,4.0
2019-04-01T11:01:01.499Z,3.5
2019-04-01T11:06:01.599Z,3.6
2019-04-01T11:11:01.302Z,3.8
2019-04-01T11:16:01.438Z,4.1
2019-04-01T11:21:01.307Z,4.3
2019-04-01T11:26:01.306Z,4.7
2019-04-01T11:31:01.389Z,4.6
2019-04-01T11:41:06.382Z,4.6
2019-04-01T11:46:02.252Z,4.5
2019-04-01T11:51:01.331Z,4.4
2019-04-01T11:56:01.355Z,4.6
2019-04-01T12:01:01.307Z,4.5
2019-04-01T12:06:01.292Z,4.6
2019-04-01T12:11:01.395Z,4.4
2019-04-01T12:16:01.366Z,4.6
2019-04-01T12:21:01.337Z,4.4
2019-04-01T12:31:01.361Z,3.8
2019-04-01T12:36:01.325Z,4.2
2019-04-01T12:41:01.332Z,4.1
2019-04-01T12:46:01.462Z,4.2
2019-04-01T12:51:01.400Z,4.0
2019-04-01T12:56:01.321Z,4.3
2019-04-01T13:01:01.611Z,3.8
2019-04-01T13:11:01.464Z,3.6
2019-04-01T13:17:01.397Z,3.5
2019-04-01T13:22:01.331Z,3.3
2019-04-01T13:27:01.366Z,3.4
2019-04-01T13:32:01.299Z,3.2
2019-04-01T13:37:01.430Z,3.7
2019-04-01T13:42:01.339Z,4.0
2019-04-01T13:47:01.368Z,4.2
2019-04-01T13:52:03.967Z,4.6
2019-04-01T13:57:01.364Z,5.2
2019-04-01T14:02:01.328Z,4.8
2019-04-01T14:07:01.361Z,4.8
2019-04-01T14:12:01.363Z,5.1
2019-04-01T14:17:01.401Z,5.0
2019-04-01T14:22:01.338Z,5.0
2019-04-01T14:27:01.403Z,5.1
2019-04-01T14:32:01.372Z,5.6
2019-04-01T14:37:01.440Z,5.2
2019-04-01T14:42:01.333Z,5.0
2019-04-01T14:47:01.427Z,4.8
2019-04-01T14:52:01.310Z,4.7
2019-04-01T14:57:01.411Z,4.4
2019-04-01T15:02:03.962Z,4.8
2019-04-01T15:07:01.313Z,4.9
2019-04-01T15:12:01.292Z,5.2
2019-04-01T15:17:01.354Z,4.9
2019-04-01T15:22:01.340Z,4.7
2019-04-01T15:27:01.419Z,4.2
2019-04-01T15:37:01.377Z,4.4
2019-04-01T15:42:01.298Z,4.2
2019-04-01T15:47:04.744Z,4.7
2019-04-01T15:52:06.303Z,4.9
2019-04-01T15:57:01.417Z,5.0
2019-04-01T16:02:01.294Z,4.8
2019-04-01T16:07:01.359Z,5.0
2019-04-01T16:12:01.356Z,4.8
2019-04-01T16:17:01.365Z,4.7
2019-04-01T16:22:01.295Z,4.3
2019-04-01T16:27:01.352Z,4.3
2019-04-01T16:32:01.301Z,4.5
2019-04-01T16:37:01.631Z,4.7
2019-04-01T16:42:02.310Z,5.1
2019-04-01T16:47:01.466Z,5.5
2019-04-01T16:57:01.351Z,5.3
2019-04-01T17:07:01.408Z,5.1
2019-04-01T17:12:01.305Z,4.8
2019-04-01T17:17:01.362Z,5.0
2019-04-01T17:22:02.222Z,4.5
2019-04-01T17:27:01.425Z,4.4
2019-04-01T17:32:02.299Z,4.0
2019-04-01T17:37:02.360Z,4.5
2019-04-01T17:42:01.289Z,4.5
2019-04-01T17:47:01.387Z,4.6
2019-04-01T17:52:04.625Z,4.4
2019-04-01T18:02:01.937Z,4.2
2019-04-01T18:07:01.366Z,4.2
2019-04-01T18:12:01.306Z,3.9
2019-04-01T18:17:01.417Z,3.7
2019-04-01T18:22:01.391Z,3.5
2019-04-01T18:27:06.424Z,3.3
2019-04-01T18:32:02.734Z,3.0
2019-04-01T18:37:01.356Z,3.0
2019-04-01T18:42:07.277Z,2.9
2019-04-01T18:47:04.190Z,2.9
2019-04-01T18:57:03.926Z,2.7
2019-04-01T19:12:04.846Z,2.6
2019-04-01T19:17:01.441Z,2.7
2019-04-01T19:22:01.323Z,3.1
2019-04-01T19:32:01.345Z,3.3
2019-04-01T19:37:01.487Z,3.3
2019-04-01T19:42:01.372Z,3.4
2019-04-01T19:47:01.495Z,3.0
2019-04-01T19:52:01.333Z,3.0
2019-04-01T19:57:01.439Z,2.9
2019-04-01T20:02:01.293Z,2.8
2019-04-01T20:07:01.388Z,2.6
2019-04-01T20:12:01.361Z,2.8
2019-04-01T20:27:01.458Z,2.9
2019-04-01T20:32:18.194Z,2.7
2019-04-01T20:37:01.315Z,2.6
2019-04-01T20:42:01.302Z,2.2
2019-04-01T20:47:01.497Z,2.1
2019-04-01T20:52:01.318Z,2.2
2019-04-01T20:57:01.444Z,2.2
2019-04-01T21:02:01.330Z,2.2
2019-04-01T21:07:01.441Z,2.3
2019-04-01T21:12:03.310Z,1.8
2019-04-01T21:22:02.371Z,1.6
2019-04-01T21:32:01.372Z,1.8
2019-04-01T21:37:03.612Z,2.0
2019-04-01T21:42:01.321Z,2.5
2019-04-01T21:52:03.449Z,2.8
2019-04-01T21:57:01.493Z,2.8
2019-04-01T22:02:01.341Z,3.2
2019-04-01T22:12:01.374Z,3.7
2019-04-01T22:17:01.415Z,3.6
2019-04-01T22:32:01.431Z,3.8
2019-04-01T22:37:01.367Z,3.9
2019-04-01T22:42:01.310Z,4.0
2019-04-01T22:47:01.430Z,4.1
2019-04-01T22:52:01.334Z,4.4
2019-04-01T22:57:01.399Z,4.6
2019-04-01T23:02:01.300Z,4.7
2019-04-01T23:17:01.360Z,4.7
2019-04-01T23:27:01.431Z,4.6
2019-04-01T23:32:01.307Z,4.8
2019-04-01T23:37:01.399Z,4.9
2019-04-01T23:42:01.308Z,5.1
2019-04-01T23:52:01.384Z,4.8
